createdAt,value
2022-10-24T00:01:29.882Z,99652.59
2022-10-24T00:03:57.386Z,99669.38
2022-10-24T00:06:26.197Z,99648.97
2022-10-24T00:08:53.645Z,99640.88
2022-10-24T00:11:22.061Z,99634.31
2022-10-24T00:13:50.205Z,99650.75
2022-10-24T00:16:17.689Z,99649.94
2022-10-24T00:18:45.192Z,99647.28
2022-10-24T00:21:12.732Z,99612.44
2022-10-24T00:23:41.521Z,99637.47
2022-10-24T00:26:08.948Z,99647.28
2022-10-24T00:28:36.864Z,99659.72
2022-10-24T00:31:04.691Z,99613.59
2022-10-24T00:33:32.141Z,99652.59
2022-10-24T00:35:59.624Z,99612.63
2022-10-24T00:38:27.072Z,99656.06
2022-10-24T00:40:55.876Z,99649.94
2022-10-24T00:43:24.692Z,99613.28
2022-10-24T00:45:54.891Z,99666.81
2022-10-24T00:48:24.396Z,99616.91
2022-10-24T00:50:53.240Z,99604.16
2022-10-24T00:53:20.948Z,99660.56
2022-10-24T00:55:49.450Z,99658.84
2022-10-24T00:58:18.574Z,99589.31
2022-10-24T01:00:46.251Z,99641.09
2022-10-24T01:03:13.721Z,99639.41
2022-10-24T01:05:44.826Z,99614.53
2022-10-24T01:08:17.898Z,99624.22
2022-10-24T01:10:49.169Z,99645.56
2022-10-24T01:13:23.516Z,99633.13
2022-10-24T01:15:52.208Z,99538.75
2022-10-24T01:18:21.673Z,99622.59
2022-10-24T01:20:58.132Z,99580.25
2022-10-24T01:23:37.276Z,99614.53
2022-10-24T01:26:11.905Z,99620.81
2022-10-24T01:28:42.840Z,99561.34
2022-10-24T01:31:13.061Z,99620.72
2022-10-24T01:33:41.523Z,99611.00
2022-10-24T01:36:10.349Z,99607.53
2022-10-24T01:38:40.148Z,99605.69
2022-10-24T01:41:08.517Z,99606.56
2022-10-24T01:43:37.159Z,99558.47
2022-10-24T01:46:06.123Z,99558.47
2022-10-24T01:48:36.556Z,99606.66
2022-10-24T01:51:04.127Z,99605.69
2022-10-24T01:53:31.578Z,99602.22
2022-10-24T01:55:59.033Z,99532.13
2022-10-24T01:58:26.553Z,99548.78
2022-10-24T02:00:55.854Z,99572.97
2022-10-24T02:03:25.378Z,99581.06
2022-10-24T02:05:55.802Z,99573.09
2022-10-24T02:08:28.377Z,99569.47
2022-10-24T02:10:58.062Z,99542.00
2022-10-24T02:13:28.246Z,99592.41
2022-10-24T02:15:56.463Z,99585.50
2022-10-24T02:18:23.998Z,99588.19
2022-10-24T02:20:55.818Z,99574.78
2022-10-24T02:23:27.648Z,99574.88
2022-10-24T02:25:56.143Z,99588.19
2022-10-24T02:28:24.582Z,99577.53
2022-10-24T02:30:53.698Z,99547.41
2022-10-24T02:33:21.156Z,99572.22
2022-10-24T02:35:48.618Z,99559.28
2022-10-24T02:38:19.449Z,99554.59
2022-10-24T02:40:46.868Z,99522.53
2022-10-24T02:43:14.397Z,99552.78
2022-10-24T02:45:41.887Z,99553.75
2022-10-24T02:48:11.266Z,99549.28
2022-10-24T02:50:38.952Z,99513.75
2022-10-24T02:53:06.475Z,99554.59
2022-10-24T02:55:35.274Z,99544.78
2022-10-24T02:58:02.730Z,99550.09
2022-10-24T03:00:30.350Z,99546.63
2022-10-24T03:02:57.855Z,99497.06
2022-10-24T03:05:25.338Z,99544.78
2022-10-24T03:07:52.794Z,99540.22
2022-10-24T03:10:20.230Z,99550.97
2022-10-24T03:12:49.070Z,99537.78
2022-10-24T03:15:16.590Z,99461.09
2022-10-24T03:17:44.427Z,99538.66
2022-10-24T03:20:12.318Z,99545.78
2022-10-24T03:22:39.849Z,99549.28
2022-10-24T03:25:07.630Z,99547.44
2022-10-24T03:27:35.165Z,99525.50
2022-10-24T03:30:04.379Z,99549.28
2022-10-24T03:32:33.978Z,99554.50
2022-10-24T03:35:01.560Z,99550.97
2022-10-24T03:37:29.134Z,99556.28
2022-10-24T03:39:56.560Z,99545.66
2022-10-24T03:42:24.024Z,99556.28
2022-10-24T03:44:51.457Z,99543.00
2022-10-24T03:47:20.495Z,99549.06
2022-10-24T03:49:47.921Z,99550.00
2022-10-24T03:52:15.363Z,99546.53
2022-10-24T03:54:42.785Z,99550.84
2022-10-24T03:57:10.737Z,99546.53
2022-10-24T03:59:38.202Z,99548.19
2022-10-24T04:02:06.113Z,99456.66
2022-10-24T04:04:34.905Z,99544.69
2022-10-24T04:07:02.347Z,99537.69
2022-10-24T04:09:29.767Z,99543.97
2022-10-24T04:11:57.236Z,99533.22
2022-10-24T04:14:24.661Z,99529.72
2022-10-24T04:16:52.130Z,99525.25
2022-10-24T04:19:19.582Z,99527.91
2022-10-24T04:21:48.762Z,99535.78
2022-10-24T04:24:16.638Z,99498.03
2022-10-24T04:26:44.093Z,99536.59
2022-10-24T04:29:11.511Z,99547.22
2022-10-24T04:31:38.955Z,99540.97
2022-10-24T04:34:06.471Z,99546.63
2022-10-24T04:36:33.966Z,99492.31
2022-10-24T04:39:02.755Z,99553.50
2022-10-24T04:41:30.205Z,99552.66
2022-10-24T04:43:57.674Z,99542.88
2022-10-24T04:46:25.112Z,99541.19
2022-10-24T04:48:53.414Z,99533.22
2022-10-24T04:51:22.465Z,99530.56
2022-10-24T04:53:50.316Z,99491.63
2022-10-24T04:56:19.175Z,99530.69
2022-10-24T04:58:46.848Z,99492.16
2022-10-24T05:01:14.368Z,99526.31
2022-10-24T05:03:41.858Z,99518.34
2022-10-24T05:06:09.289Z,99521.00
2022-10-24T05:08:36.772Z,99521.00
2022-10-24T05:11:04.312Z,99520.16
2022-10-24T05:13:36.605Z,99527.28
2022-10-24T05:16:04.608Z,99491.53
2022-10-24T05:18:32.040Z,99518.44
2022-10-24T05:20:59.772Z,99518.78
2022-10-24T05:23:27.312Z,99522.94
2022-10-24T05:25:54.810Z,99522.94
2022-10-24T05:28:22.331Z,99508.69
2022-10-24T05:30:51.167Z,99472.94
2022-10-24T05:33:18.635Z,99504.34
2022-10-24T05:35:46.044Z,99505.16
2022-10-24T05:38:13.490Z,99507.81
2022-10-24T05:40:41.091Z,99512.31
2022-10-24T05:43:08.546Z,99480.03
2022-10-24T05:45:36.121Z,99485.56
2022-10-24T05:48:05.540Z,99517.63
2022-10-24T05:50:33.002Z,99521.97
2022-10-24T05:53:00.442Z,99512.31
2022-10-24T05:55:27.938Z,99479.22
2022-10-24T05:57:55.385Z,99455.00
2022-10-24T06:00:23.058Z,99516.84
2022-10-24T06:02:50.565Z,99516.63
2022-10-24T06:05:19.837Z,99525.19
2022-10-24T06:07:47.656Z,99518.59
2022-10-24T06:10:16.291Z,99478.59
2022-10-24T06:12:44.136Z,99525.16
2022-10-24T06:15:13.247Z,99466.84
2022-10-24T06:17:40.713Z,99528.47
2022-10-24T06:20:09.492Z,99533.34
2022-10-24T06:22:38.278Z,99530.56
2022-10-24T06:25:06.347Z,99530.44
2022-10-24T06:27:33.792Z,99537.34
2022-10-24T06:30:01.218Z,99542.78
2022-10-24T06:32:28.651Z,99544.25
2022-10-24T06:34:56.072Z,99541.34
2022-10-24T06:37:23.519Z,99551.75
2022-10-24T06:39:52.291Z,99541.56
2022-10-24T06:42:19.763Z,99547.41
2022-10-24T06:44:47.252Z,99549.97
2022-10-24T06:47:14.786Z,99539.22
2022-10-24T06:49:42.250Z,99551.53
2022-10-24T06:52:09.711Z,99543.44
2022-10-24T06:54:38.946Z,99544.06
2022-10-24T06:57:07.757Z,99549.03
2022-10-24T06:59:35.238Z,99548.94
2022-10-24T07:02:05.792Z,99550.63
2022-10-24T07:04:33.679Z,99557.31
2022-10-24T07:07:01.121Z,99556.22
2022-10-24T07:09:29.023Z,99521.56
2022-10-24T07:11:56.448Z,99569.19
2022-10-24T07:14:26.342Z,99572.34
2022-10-24T07:16:53.830Z,99569.81
2022-10-24T07:19:21.279Z,99523.72
2022-10-24T07:21:48.927Z,99572.69
2022-10-24T07:24:16.384Z,99575.34
2022-10-24T07:26:43.870Z,99588.88
2022-10-24T07:29:11.338Z,99589.59
2022-10-24T07:31:40.086Z,99591.31
2022-10-24T07:34:09.225Z,99585.03
2022-10-24T07:36:40.236Z,99524.56
2022-10-24T07:39:11.101Z,99538.53
2022-10-24T07:41:40.548Z,99550.50
2022-10-24T07:44:08.017Z,99572.22
2022-10-24T07:46:35.562Z,99526.91
2022-10-24T07:49:04.323Z,99579.28
2022-10-24T07:51:31.881Z,99577.56
2022-10-24T07:53:59.625Z,99573.97
2022-10-24T07:56:27.163Z,99559.69
2022-10-24T07:58:56.006Z,99571.06
2022-10-24T08:01:24.633Z,99581.59
2022-10-24T08:03:52.161Z,99500.41
2022-10-24T08:06:23.314Z,99485.44
2022-10-24T08:08:50.852Z,99535.22
2022-10-24T08:11:21.447Z,99566.22
2022-10-24T08:13:49.270Z,99568.78
2022-10-24T08:16:17.133Z,99566.97
2022-10-24T08:18:44.754Z,99560.66
2022-10-24T08:21:13.077Z,99501.56
2022-10-24T08:23:43.634Z,99563.84
2022-10-24T08:26:12.810Z,99555.84
2022-10-24T08:28:40.249Z,99552.72
2022-10-24T08:31:08.683Z,99552.03
2022-10-24T08:33:36.313Z,99558.31
2022-10-24T08:36:05.333Z,99527.66
2022-10-24T08:38:32.772Z,99499.09
2022-10-24T08:41:01.604Z,99556.28
2022-10-24T08:43:29.178Z,99549.66
2022-10-24T08:45:59.826Z,99483.50
2022-10-24T08:48:28.263Z,99551.34
2022-10-24T08:50:58.624Z,99554.00
2022-10-24T08:53:27.888Z,99530.75
2022-10-24T08:55:56.221Z,99540.44
2022-10-24T08:58:26.732Z,99542.13
2022-10-24T09:00:54.888Z,99516.34
2022-10-24T09:03:43.338Z,99485.44
2022-10-24T09:06:17.301Z,99482.78
2022-10-24T09:08:47.877Z,99500.19
2022-10-24T09:11:17.732Z,99550.63
2022-10-24T09:13:46.506Z,99549.63
2022-10-24T09:16:14.965Z,99548.69
2022-10-24T09:18:43.017Z,99557.38
2022-10-24T09:21:10.478Z,99489.53
2022-10-24T09:23:38.353Z,99555.47
2022-10-24T09:26:06.573Z,99538.50
2022-10-24T09:28:34.169Z,99550.63
2022-10-24T09:31:04.657Z,99483.75
2022-10-24T09:33:34.317Z,99525.91
2022-10-24T09:36:02.561Z,99476.34
2022-10-24T09:38:33.416Z,99566.34
2022-10-24T09:41:03.302Z,99573.41
2022-10-24T09:43:38.391Z,99571.94
2022-10-24T09:46:08.308Z,99570.00
2022-10-24T09:48:40.646Z,99563.56
2022-10-24T09:51:08.390Z,99520.34
2022-10-24T09:53:37.477Z,99556.44
2022-10-24T09:56:08.515Z,99558.38
2022-10-24T09:58:36.347Z,99563.56
2022-10-24T10:01:05.465Z,99570.50
2022-10-24T10:03:34.485Z,99531.59
2022-10-24T10:06:04.442Z,99526.38
2022-10-24T10:08:32.617Z,99536.69
2022-10-24T10:11:05.489Z,99572.81
2022-10-24T10:13:38.142Z,99586.94
2022-10-24T10:16:07.320Z,99580.66
2022-10-24T10:18:43.506Z,99501.94
2022-10-24T10:21:12.578Z,99540.56
2022-10-24T10:23:41.334Z,99569.75
2022-10-24T10:28:28.061Z,99591.34
2022-10-24T10:30:56.690Z,99586.09
2022-10-24T10:33:25.029Z,99603.56
2022-10-24T10:35:56.208Z,99526.16
2022-10-24T10:38:37.150Z,99612.75
2022-10-24T10:41:06.250Z,99598.56
2022-10-24T10:43:36.058Z,99622.81
2022-10-24T10:46:11.948Z,99618.91
2022-10-24T10:48:45.729Z,99623.19
2022-10-24T10:51:18.082Z,99550.13
2022-10-24T10:53:48.124Z,99611.44
2022-10-24T10:56:22.488Z,99608.03
2022-10-24T10:58:52.338Z,99595.94
2022-10-24T11:01:24.313Z,99558.16
2022-10-24T11:03:53.387Z,99559.94
2022-10-24T11:06:30.231Z,99611.19
2022-10-24T11:09:17.140Z,99630.31
2022-10-24T11:11:45.525Z,99608.66
2022-10-24T11:14:18.507Z,99629.59
2022-10-24T11:16:45.979Z,99564.94
2022-10-24T11:19:22.207Z,99605.59
2022-10-24T11:21:51.030Z,99558.00
2022-10-24T11:24:19.675Z,99635.03
2022-10-24T11:26:47.887Z,99644.72
2022-10-24T11:29:17.255Z,99593.84
2022-10-24T11:31:46.398Z,99637.22
2022-10-24T11:34:15.114Z,99639.75
2022-10-24T11:36:44.110Z,99640.63
2022-10-24T11:39:15.770Z,99620.38
2022-10-24T11:41:49.118Z,99621.38
2022-10-24T11:44:23.935Z,99647.06
2022-10-24T11:46:54.665Z,99640.00
2022-10-24T11:49:24.355Z,99617.09
2022-10-24T11:51:53.277Z,99641.59
2022-10-24T11:54:23.118Z,99642.44
2022-10-24T11:56:51.906Z,99637.72
2022-10-24T11:59:24.033Z,99585.59
2022-10-24T12:02:18.401Z,99635.66
2022-10-24T12:04:54.516Z,99632.00
2022-10-24T12:07:53.631Z,99631.19
2022-10-24T12:10:28.861Z,99598.59
2022-10-24T12:13:07.171Z,99648.75
2022-10-24T12:15:43.437Z,99648.00
2022-10-24T12:18:12.450Z,99663.06
2022-10-24T12:20:40.303Z,99615.56
2022-10-24T12:23:07.765Z,99649.59
2022-10-24T12:25:37.125Z,99664.75
2022-10-24T12:28:05.707Z,99622.81
2022-10-24T12:30:33.890Z,99676.38
2022-10-24T12:33:09.743Z,99672.00
2022-10-24T12:35:58.446Z,99666.66
2022-10-24T12:38:59.892Z,99662.31
2022-10-24T12:41:41.743Z,99657.09
2022-10-24T12:44:41.017Z,99663.53
2022-10-24T12:47:28.372Z,99666.19
2022-10-24T12:49:55.931Z,99670.06
2022-10-24T12:52:50.701Z,99668.38
2022-10-24T12:55:30.131Z,99660.25
2022-10-24T12:57:58.912Z,99662.91
2022-10-24T13:00:29.375Z,99662.19
2022-10-24T13:03:04.129Z,99624.50
2022-10-24T13:05:58.647Z,99655.78
2022-10-24T13:08:36.999Z,99654.91
2022-10-24T13:11:11.033Z,99659.50
2022-10-24T13:13:51.233Z,99652.50
2022-10-24T13:16:26.112Z,99656.00
2022-10-24T13:19:02.232Z,99654.06
2022-10-24T13:21:31.194Z,99655.78
2022-10-24T13:24:11.367Z,99660.25
2022-10-24T13:26:39.610Z,99650.81
2022-10-24T13:29:13.086Z,99616.88
2022-10-24T13:31:42.978Z,99604.38
2022-10-24T13:34:15.679Z,99656.97
2022-10-24T13:36:43.213Z,99656.13
2022-10-24T13:39:12.275Z,99644.84
2022-10-24T13:41:41.231Z,99590.34
2022-10-24T13:44:19.712Z,99649.81
2022-10-24T13:46:53.286Z,99651.63
2022-10-24T13:49:23.743Z,99651.63
2022-10-24T13:51:53.393Z,99652.63
2022-10-24T13:54:22.293Z,99658.94
2022-10-24T13:56:49.927Z,99657.94
2022-10-24T13:59:29.536Z,99648.25
2022-10-24T14:01:57.576Z,99653.34
2022-10-24T14:04:25.117Z,99647.28
2022-10-24T14:06:52.566Z,99629.13
2022-10-24T14:09:20.010Z,99648.25
2022-10-24T14:11:48.347Z,99652.84
2022-10-24T14:14:33.076Z,99596.38
2022-10-24T14:17:09.539Z,99653.59
2022-10-24T14:19:44.359Z,99655.41
2022-10-24T14:22:19.485Z,99651.88
2022-10-24T14:24:47.094Z,99648.38
2022-10-24T14:27:14.552Z,99661.59
2022-10-24T14:29:51.462Z,99652.84
2022-10-24T14:32:19.133Z,99653.09
2022-10-24T14:34:47.103Z,99659.41
2022-10-24T14:37:15.995Z,99665.56
2022-10-24T14:39:43.533Z,99680.72
2022-10-24T14:42:14.156Z,99675.50
2022-10-24T14:44:46.176Z,99686.28
2022-10-24T14:47:22.573Z,99687.97
2022-10-24T14:49:50.188Z,99687.75
2022-10-24T14:52:19.799Z,99714.88
2022-10-24T14:54:53.408Z,99726.50
2022-10-24T14:57:23.244Z,99663.19
2022-10-24T14:59:52.898Z,99696.69
2022-10-24T15:02:22.404Z,99724.06
2022-10-24T15:04:51.812Z,99689.75
2022-10-24T15:07:28.828Z,99730.25
2022-10-24T15:09:57.267Z,99732.19
2022-10-24T15:12:27.517Z,99679.91
2022-10-24T15:14:57.049Z,99731.22
2022-10-24T15:17:31.612Z,99691.53
2022-10-24T15:20:01.244Z,99682.69
2022-10-24T15:22:29.558Z,99720.78
2022-10-24T15:24:57.503Z,99725.28
2022-10-24T15:27:26.884Z,99720.78
2022-10-24T15:29:55.653Z,99726.22
2022-10-24T15:32:24.060Z,99679.03
2022-10-24T15:34:54.676Z,99725.41
2022-10-24T15:37:30.445Z,99725.41
2022-10-24T15:39:57.957Z,99734.47
2022-10-24T15:42:25.449Z,99733.63
2022-10-24T15:44:52.882Z,99727.44
2022-10-24T15:47:23.773Z,99728.41
2022-10-24T15:49:52.107Z,99676.22
2022-10-24T15:52:19.558Z,99734.81
2022-10-24T15:54:47.054Z,99664.19
2022-10-24T15:57:14.535Z,99740.13
2022-10-24T15:59:42.114Z,99733.34
2022-10-24T16:02:13.480Z,99704.69
2022-10-24T16:04:42.378Z,99675.19
2022-10-24T16:07:10.575Z,99691.44
2022-10-24T16:09:38.042Z,99748.59
2022-10-24T16:12:05.505Z,99750.44
2022-10-24T16:14:32.955Z,99754.03
2022-10-24T16:17:00.392Z,99751.50
2022-10-24T16:19:27.847Z,99688.50
2022-10-24T16:21:58.184Z,99740.59
2022-10-24T16:24:25.683Z,99756.94
2022-10-24T16:26:53.230Z,99755.13
2022-10-24T16:29:20.679Z,99751.59
2022-10-24T16:31:49.031Z,99750.91
2022-10-24T16:34:16.487Z,99755.34
2022-10-24T16:36:43.954Z,99750.25
2022-10-24T16:39:14.338Z,99762.50
2022-10-24T16:41:45.783Z,99762.59
2022-10-24T16:44:13.234Z,99761.78
2022-10-24T16:46:40.682Z,99769.78
2022-10-24T16:49:08.165Z,99761.78
2022-10-24T16:51:39.210Z,99761.88
2022-10-24T16:54:08.009Z,99768.16
2022-10-24T16:56:36.753Z,99780.53
2022-10-24T16:59:04.190Z,99770.00
2022-10-24T17:01:31.790Z,99785.13
2022-10-24T17:04:00.494Z,99791.41
2022-10-24T17:06:27.952Z,99800.25
2022-10-24T17:08:55.442Z,99814.53
2022-10-24T17:14:13.818Z,99811.97
2022-10-24T17:16:41.584Z,99792.44
2022-10-24T17:19:17.513Z,99811.13
2022-10-24T17:21:46.994Z,99796.13
2022-10-24T17:24:14.903Z,99754.44
2022-10-24T17:26:42.646Z,99771.84
2022-10-24T17:29:13.331Z,99795.25
2022-10-24T17:31:40.907Z,99793.03
2022-10-24T17:34:09.600Z,99803.47
2022-10-24T17:36:38.094Z,99752.44
2022-10-24T17:39:10.027Z,99806.13
2022-10-24T17:41:39.109Z,99789.78
2022-10-24T17:44:07.154Z,99794.66
2022-10-24T17:46:37.533Z,99799.22
2022-10-24T17:49:05.019Z,99796.56
2022-10-24T17:51:36.961Z,99805.53
2022-10-24T17:54:05.743Z,99801.25
2022-10-24T17:56:33.188Z,99814.47
2022-10-24T17:59:00.638Z,99815.44
2022-10-24T18:01:28.189Z,99830.56
2022-10-24T18:03:56.998Z,99831.53
2022-10-24T18:06:24.431Z,99828.00
2022-10-24T18:08:53.737Z,99827.16
2022-10-24T18:11:21.167Z,99820.44
2022-10-24T18:13:48.670Z,99825.63
2022-10-24T18:16:17.004Z,99833.44
2022-10-24T18:18:45.938Z,99828.19
2022-10-24T18:21:16.067Z,99833.44
2022-10-24T18:23:43.364Z,99838.13
2022-10-24T18:26:11.975Z,99771.91
2022-10-24T18:28:39.507Z,99845.25
2022-10-24T18:31:08.893Z,99842.59
2022-10-24T18:33:36.316Z,99855.03
2022-10-24T18:36:08.154Z,99854.09
2022-10-24T18:38:37.273Z,99850.69
2022-10-24T18:41:05.139Z,99848.88
2022-10-24T18:43:32.865Z,99843.91
2022-10-24T18:46:00.799Z,99838.34
2022-10-24T18:48:28.700Z,99849.00
2022-10-24T18:50:56.423Z,99838.03
2022-10-24T18:53:24.828Z,99860.59
2022-10-24T18:55:53.945Z,99845.59
2022-10-24T18:58:21.577Z,99847.38
2022-10-24T19:00:49.483Z,99852.72
2022-10-24T19:03:21.596Z,99843.91
2022-10-24T19:05:53.823Z,99844.84
2022-10-24T19:08:23.428Z,99830.50
2022-10-24T19:10:51.557Z,99839.63
2022-10-24T19:13:20.499Z,99852.94
2022-10-24T19:15:48.937Z,99846.78
2022-10-24T19:18:16.740Z,99811.16
2022-10-24T19:20:44.204Z,99836.69
2022-10-24T19:23:12.263Z,99854.97
2022-10-24T19:25:39.854Z,99856.69
2022-10-24T19:28:07.366Z,99862.97
2022-10-24T19:30:37.438Z,99865.63
2022-10-24T19:33:04.786Z,99860.53
2022-10-24T19:35:32.225Z,99863.09
2022-10-24T19:37:59.688Z,99858.69
2022-10-24T19:40:27.112Z,99856.03
2022-10-24T19:42:54.549Z,99858.59
2022-10-24T19:45:25.054Z,99860.53
2022-10-24T19:47:55.920Z,99857.88
2022-10-24T19:50:23.365Z,99855.22
2022-10-24T19:52:51.514Z,99856.16
2022-10-24T19:55:18.971Z,99858.81
2022-10-24T19:57:46.700Z,99851.78
2022-10-24T20:00:14.945Z,99859.78
2022-10-24T20:02:42.653Z,99862.44
2022-10-24T20:05:11.623Z,99865.09
2022-10-24T20:07:39.073Z,99866.91
2022-10-24T20:10:07.447Z,99868.75
2022-10-24T20:12:34.881Z,99866.72
2022-10-24T20:15:02.322Z,99885.66
2022-10-24T20:17:29.781Z,99867.38
2022-10-24T20:19:57.266Z,99841.84
2022-10-24T20:22:26.040Z,99893.63
2022-10-24T20:24:53.493Z,99893.75
2022-10-24T20:27:23.766Z,99891.94
2022-10-24T20:29:55.603Z,99890.25
2022-10-24T20:32:23.068Z,99891.06
2022-10-24T20:34:50.522Z,99890.25
2022-10-24T20:37:17.951Z,99894.72
2022-10-24T20:39:46.718Z,99895.56
2022-10-24T20:42:15.836Z,99883.41
2022-10-24T20:44:43.284Z,99900.03
2022-10-24T20:47:10.708Z,99903.56
2022-10-24T20:49:38.126Z,99910.78
2022-10-24T20:52:05.939Z,99915.16
2022-10-24T20:54:33.386Z,99917.81
2022-10-24T20:57:02.145Z,99910.78
2022-10-24T20:59:29.590Z,99901.13
2022-10-24T21:01:57.117Z,99909.94
2022-10-24T21:04:24.627Z,99850.28
2022-10-24T21:06:52.059Z,99914.41
2022-10-24T21:09:19.516Z,99918.03
2022-10-24T21:11:46.941Z,99915.38
2022-10-24T21:14:17.870Z,99881.44
2022-10-24T21:16:45.294Z,99914.53
2022-10-24T21:19:12.777Z,99856.34
2022-10-24T21:21:40.235Z,99930.50
2022-10-24T21:24:08.143Z,99932.31
2022-10-24T21:26:37.788Z,99930.59
2022-10-24T21:29:20.667Z,99940.41
2022-10-24T21:31:54.233Z,99939.53
2022-10-24T21:34:21.687Z,99947.50
2022-10-24T21:36:49.163Z,99968.81
2022-10-24T21:39:16.928Z,99910.94
2022-10-24T21:41:44.518Z,99954.03
2022-10-24T21:44:12.323Z,99960.94
2022-10-24T21:46:39.756Z,99941.47
2022-10-24T21:49:08.585Z,99959.25
2022-10-24T21:51:36.853Z,99898.97
2022-10-24T21:54:05.164Z,99957.53
2022-10-24T21:56:33.467Z,99909.72
2022-10-24T22:01:31.542Z,99958.47
2022-10-24T22:03:59.837Z,99954.13
2022-10-24T22:06:28.938Z,99955.94
2022-10-24T22:08:56.531Z,99933.16
2022-10-24T22:11:24.672Z,99958.59
2022-10-24T22:13:52.235Z,99959.56
2022-10-24T22:16:20.475Z,99922.53
2022-10-24T22:18:48.094Z,99909.75
2022-10-24T22:21:18.667Z,99951.25
2022-10-24T22:23:47.463Z,99953.19
2022-10-24T22:26:14.954Z,99979.16
2022-10-24T22:28:42.401Z,99965.84
2022-10-24T22:31:10.489Z,99985.41
2022-10-24T22:33:38.541Z,99934.53
2022-10-24T22:36:08.854Z,99989.91
2022-10-24T22:38:36.813Z,99986.38
2022-10-24T22:41:06.187Z,99990.84
2022-10-24T22:43:34.273Z,99997.03
2022-10-24T22:46:05.383Z,99991.69
2022-10-24T22:48:34.052Z,99994.38
2022-10-24T22:51:01.822Z,99987.34
2022-10-24T22:53:30.808Z,99982.97
2022-10-24T22:56:11.298Z,99987.34
2022-10-24T22:58:39.268Z,99984.78
2022-10-24T23:01:13.611Z,99974.03
2022-10-24T23:03:46.862Z,99982.13
2022-10-24T23:06:17.000Z,99985.72
2022-10-24T23:08:44.742Z,99985.09
2022-10-24T23:11:14.521Z,99992.22
2022-10-24T23:13:42.641Z,99987.66
2022-10-24T23:16:14.236Z,100001.91
2022-10-24T23:18:42.236Z,99999.25
2022-10-24T23:21:12.477Z,100005.44
2022-10-24T23:23:40.344Z,100008.09
2022-10-24T23:26:10.700Z,100006.41
2022-10-24T23:28:41.495Z,100007.34
2022-10-24T23:31:09.504Z,100001.28
2022-10-24T23:33:37.346Z,100003.75
2022-10-24T23:36:05.309Z,100002.88
2022-10-24T23:38:33.324Z,100003.75
2022-10-24T23:41:01.503Z,100003.75
2022-10-24T23:43:29.424Z,100001.91
2022-10-24T23:46:00.042Z,100002.97
2022-10-24T23:48:36.268Z,99980.63
2022-10-24T23:51:05.698Z,100004.66
2022-10-24T23:53:37.520Z,100008.31
2022-10-24T23:56:05.644Z,100006.59
2022-10-24T23:58:33.100Z,100001.28
